sensor_id;sensor_type;location;lat;lon;timestamp;temperature;humidity
15113;DHT22;7657;50.140;7.076;2023-05-07T00:00:43;15.20;99.90
15113;DHT22;7657;50.140;7.076;2023-05-07T00:03:10;15.20;99.90
15113;DHT22;7657;50.140;7.076;2023-05-07T00:05:39;15.30;99.90
15113;DHT22;7657;50.140;7.076;2023-05-07T00:08:07;15.30;99.90
15113;DHT22;7657;50.140;7.076;2023-05-07T00:10:33;15.40;99.90
15113;DHT22;7657;50.140;7.076;2023-05-07T00:13:02;15.40;99.90
15113;DHT22;7657;50.140;7.076;2023-05-07T00:15:28;15.40;99.90
15113;DHT22;7657;50.140;7.076;2023-05-07T00:17:55;15.40;99.90
15113;DHT22;7657;50.140;7.076;2023-05-07T00:20:24;15.50;99.90
15113;DHT22;7657;50.140;7.076;2023-05-07T00:22:51;15.50;99.90
15113;DHT22;7657;50.140;7.076;2023-05-07T00:25:18;15.50;99.90
15113;DHT22;7657;50.140;7.076;2023-05-07T00:27:46;15.50;99.90
15113;DHT22;7657;50.140;7.076;2023-05-07T00:30:14;15.40;99.90
15113;DHT22;7657;50.140;7.076;2023-05-07T00:32:41;15.40;99.90
15113;DHT22;7657;50.140;7.076;2023-05-07T00:35:11;15.40;99.90
15113;DHT22;7657;50.140;7.076;2023-05-07T00:37:38;15.30;99.90
15113;DHT22;7657;50.140;7.076;2023-05-07T00:40:06;15.40;99.90
15113;DHT22;7657;50.140;7.076;2023-05-07T00:42:33;15.40;99.90
15113;DHT22;7657;50.140;7.076;2023-05-07T00:45:00;15.40;99.90
15113;DHT22;7657;50.140;7.076;2023-05-07T00:47:29;15.40;99.90
15113;DHT22;7657;50.140;7.076;2023-05-07T00:49:57;15.40;99.90
15113;DHT22;7657;50.140;7.076;2023-05-07T00:52:25;15.40;99.90
15113;DHT22;7657;50.140;7.076;2023-05-07T00:54:53;15.50;99.90
15113;DHT22;7657;50.140;7.076;2023-05-07T00:57:20;15.40;99.90
15113;DHT22;7657;50.140;7.076;2023-05-07T00:59:48;15.40;99.90
15113;DHT22;7657;50.140;7.076;2023-05-07T01:02:15;15.40;99.90
15113;DHT22;7657;50.140;7.076;2023-05-07T01:04:44;15.30;99.90
15113;DHT22;7657;50.140;7.076;2023-05-07T01:07:11;15.30;99.90
15113;DHT22;7657;50.140;7.076;2023-05-07T01:09:39;15.40;99.90
15113;DHT22;7657;50.140;7.076;2023-05-07T01:12:07;15.40;99.90
15113;DHT22;7657;50.140;7.076;2023-05-07T01:14:34;15.40;99.90
15113;DHT22;7657;50.140;7.076;2023-05-07T01:17:01;15.40;99.90
15113;DHT22;7657;50.140;7.076;2023-05-07T01:19:29;15.40;99.90
15113;DHT22;7657;50.140;7.076;2023-05-07T01:22:02;15.40;99.90
15113;DHT22;7657;50.140;7.076;2023-05-07T01:24:31;15.30;99.90
15113;DHT22;7657;50.140;7.076;2023-05-07T01:26:59;15.30;99.90
15113;DHT22;7657;50.140;7.076;2023-05-07T01:29:27;15.30;99.90
15113;DHT22;7657;50.140;7.076;2023-05-07T01:31:54;15.30;99.90
15113;DHT22;7657;50.140;7.076;2023-05-07T01:34:25;15.40;99.90
15113;DHT22;7657;50.140;7.076;2023-05-07T01:36:53;15.30;99.90
15113;DHT22;7657;50.140;7.076;2023-05-07T01:39:21;15.20;99.90
15113;DHT22;7657;50.140;7.076;2023-05-07T01:41:51;15.30;99.90
15113;DHT22;7657;50.140;7.076;2023-05-07T01:44:18;15.20;99.90
15113;DHT22;7657;50.140;7.076;2023-05-07T01:46:46;15.20;99.90
15113;DHT22;7657;50.140;7.076;2023-05-07T01:49:14;15.10;99.90
15113;DHT22;7657;50.140;7.076;2023-05-07T01:51:41;15.10;99.90
15113;DHT22;7657;50.140;7.076;2023-05-07T01:54:10;15.10;99.90
15113;DHT22;7657;50.140;7.076;2023-05-07T01:56:37;15.00;99.90
15113;DHT22;7657;50.140;7.076;2023-05-07T01:59:05;15.00;99.90
15113;DHT22;7657;50.140;7.076;2023-05-07T02:01:32;15.00;99.90
15113;DHT22;7657;50.140;7.076;2023-05-07T02:03:59;15.00;99.90
15113;DHT22;7657;50.140;7.076;2023-05-07T02:06:26;15.00;99.90
15113;DHT22;7657;50.140;7.076;2023-05-07T02:08:53;15.00;99.90
15113;DHT22;7657;50.140;7.076;2023-05-07T02:11:20;15.00;99.90
15113;DHT22;7657;50.140;7.076;2023-05-07T02:13:46;15.00;99.90
15113;DHT22;7657;50.140;7.076;2023-05-07T02:16:15;15.00;99.90
15113;DHT22;7657;50.140;7.076;2023-05-07T02:18:42;15.00;99.90
15113;DHT22;7657;50.140;7.076;2023-05-07T02:21:08;15.00;99.90
15113;DHT22;7657;50.140;7.076;2023-05-07T02:23:35;15.00;99.90
15113;DHT22;7657;50.140;7.076;2023-05-07T02:26:04;15.00;99.90
15113;DHT22;7657;50.140;7.076;2023-05-07T02:28:31;15.00;99.90
15113;DHT22;7657;50.140;7.076;2023-05-07T02:30:58;14.90;99.90
15113;DHT22;7657;50.140;7.076;2023-05-07T02:33:27;15.00;99.90
15113;DHT22;7657;50.140;7.076;2023-05-07T02:35:54;15.00;99.90
15113;DHT22;7657;50.140;7.076;2023-05-07T02:38:21;15.00;99.90
15113;DHT22;7657;50.140;7.076;2023-05-07T02:40:48;15.00;99.90
15113;DHT22;7657;50.140;7.076;2023-05-07T02:43:15;15.00;99.90
15113;DHT22;7657;50.140;7.076;2023-05-07T02:45:42;15.00;99.90
15113;DHT22;7657;50.140;7.076;2023-05-07T02:48:09;14.90;99.90
15113;DHT22;7657;50.140;7.076;2023-05-07T02:50:37;15.00;99.90
15113;DHT22;7657;50.140;7.076;2023-05-07T02:53:04;15.00;99.90
15113;DHT22;7657;50.140;7.076;2023-05-07T02:55:31;15.10;99.90
15113;DHT22;7657;50.140;7.076;2023-05-07T02:57:57;15.10;99.90
15113;DHT22;7657;50.140;7.076;2023-05-07T03:00:25;15.10;99.90
15113;DHT22;7657;50.140;7.076;2023-05-07T03:02:51;15.10;99.90
15113;DHT22;7657;50.140;7.076;2023-05-07T03:05:18;15.10;99.90
15113;DHT22;7657;50.140;7.076;2023-05-07T03:07:47;15.20;99.90
15113;DHT22;7657;50.140;7.076;2023-05-07T03:10:13;15.20;99.90
15113;DHT22;7657;50.140;7.076;2023-05-07T03:12:40;15.10;99.90
15113;DHT22;7657;50.140;7.076;2023-05-07T03:15:08;15.10;99.90
15113;DHT22;7657;50.140;7.076;2023-05-07T03:17:36;15.20;99.90
15113;DHT22;7657;50.140;7.076;2023-05-07T03:20:03;15.20;99.90
15113;DHT22;7657;50.140;7.076;2023-05-07T03:22:30;15.20;99.90
15113;DHT22;7657;50.140;7.076;2023-05-07T03:24:58;15.20;99.90
15113;DHT22;7657;50.140;7.076;2023-05-07T03:27:25;15.20;99.90
15113;DHT22;7657;50.140;7.076;2023-05-07T03:29:52;15.20;99.90
15113;DHT22;7657;50.140;7.076;2023-05-07T03:32:19;15.20;99.90
15113;DHT22;7657;50.140;7.076;2023-05-07T03:34:46;15.20;99.90
15113;DHT22;7657;50.140;7.076;2023-05-07T03:37:13;15.20;99.90
15113;DHT22;7657;50.140;7.076;2023-05-07T03:39:39;15.20;99.90
15113;DHT22;7657;50.140;7.076;2023-05-07T03:42:08;15.10;99.90
15113;DHT22;7657;50.140;7.076;2023-05-07T03:44:35;15.10;99.90
15113;DHT22;7657;50.140;7.076;2023-05-07T03:47:02;15.10;99.90
15113;DHT22;7657;50.140;7.076;2023-05-07T03:49:29;15.10;99.90
15113;DHT22;7657;50.140;7.076;2023-05-07T03:51:56;15.10;99.90
15113;DHT22;7657;50.140;7.076;2023-05-07T03:54:23;15.10;99.90
15113;DHT22;7657;50.140;7.076;2023-05-07T03:56:50;15.10;99.90
15113;DHT22;7657;50.140;7.076;2023-05-07T03:59:18;15.10;99.90
15113;DHT22;7657;50.140;7.076;2023-05-07T04:01:45;15.10;99.90
15113;DHT22;7657;50.140;7.076;2023-05-07T04:04:12;15.10;99.90
15113;DHT22;7657;50.140;7.076;2023-05-07T04:06:39;15.10;99.90
15113;DHT22;7657;50.140;7.076;2023-05-07T04:09:06;15.00;99.90
15113;DHT22;7657;50.140;7.076;2023-05-07T04:11:34;15.00;99.90
15113;DHT22;7657;50.140;7.076;2023-05-07T04:14:01;15.00;99.90
15113;DHT22;7657;50.140;7.076;2023-05-07T04:16:30;15.10;99.90
15113;DHT22;7657;50.140;7.076;2023-05-07T04:18:56;15.10;99.90
15113;DHT22;7657;50.140;7.076;2023-05-07T04:21:23;15.10;99.90
15113;DHT22;7657;50.140;7.076;2023-05-07T04:23:52;15.10;99.90
15113;DHT22;7657;50.140;7.076;2023-05-07T04:26:18;15.10;99.90
15113;DHT22;7657;50.140;7.076;2023-05-07T04:28:46;15.10;99.90
15113;DHT22;7657;50.140;7.076;2023-05-07T04:31:13;15.10;99.90
15113;DHT22;7657;50.140;7.076;2023-05-07T04:33:42;15.00;99.90
15113;DHT22;7657;50.140;7.076;2023-05-07T04:36:09;15.10;99.90
15113;DHT22;7657;50.140;7.076;2023-05-07T04:38:36;15.10;99.90
15113;DHT22;7657;50.140;7.076;2023-05-07T04:41:05;15.00;99.90
15113;DHT22;7657;50.140;7.076;2023-05-07T04:43:32;15.10;99.90
15113;DHT22;7657;50.140;7.076;2023-05-07T04:45:59;15.00;99.90
15113;DHT22;7657;50.140;7.076;2023-05-07T04:48:26;15.00;99.90
15113;DHT22;7657;50.140;7.076;2023-05-07T04:50:56;15.00;99.90
15113;DHT22;7657;50.140;7.076;2023-05-07T04:53:22;15.00;99.90
15113;DHT22;7657;50.140;7.076;2023-05-07T04:55:54;15.00;99.90
15113;DHT22;7657;50.140;7.076;2023-05-07T04:58:21;15.00;99.90
15113;DHT22;7657;50.140;7.076;2023-05-07T05:00:48;15.00;99.90
15113;DHT22;7657;50.140;7.076;2023-05-07T05:03:15;15.00;99.90
15113;DHT22;7657;50.140;7.076;2023-05-07T05:05:43;14.90;99.90
15113;DHT22;7657;50.140;7.076;2023-05-07T05:08:11;14.90;99.90
15113;DHT22;7657;50.140;7.076;2023-05-07T05:10:38;14.90;99.90
15113;DHT22;7657;50.140;7.076;2023-05-07T05:13:06;15.00;99.90
15113;DHT22;7657;50.140;7.076;2023-05-07T05:15:33;15.00;99.90
15113;DHT22;7657;50.140;7.076;2023-05-07T05:18:00;15.10;99.90
15113;DHT22;7657;50.140;7.076;2023-05-07T05:20:27;15.10;99.90
15113;DHT22;7657;50.140;7.076;2023-05-07T05:22:54;15.10;99.90
15113;DHT22;7657;50.140;7.076;2023-05-07T05:25:22;15.10;99.90
15113;DHT22;7657;50.140;7.076;2023-05-07T05:27:49;15.20;99.90
15113;DHT22;7657;50.140;7.076;2023-05-07T05:30:16;15.20;99.90
15113;DHT22;7657;50.140;7.076;2023-05-07T05:32:42;15.20;99.90
15113;DHT22;7657;50.140;7.076;2023-05-07T05:35:09;15.20;99.90
15113;DHT22;7657;50.140;7.076;2023-05-07T05:37:36;15.20;99.90
15113;DHT22;7657;50.140;7.076;2023-05-07T05:40:04;15.20;99.90
15113;DHT22;7657;50.140;7.076;2023-05-07T05:42:32;15.20;99.90
15113;DHT22;7657;50.140;7.076;2023-05-07T05:44:59;15.20;99.90
15113;DHT22;7657;50.140;7.076;2023-05-07T05:47:26;15.20;99.90
15113;DHT22;7657;50.140;7.076;2023-05-07T05:49:53;15.20;99.90
15113;DHT22;7657;50.140;7.076;2023-05-07T05:52:19;15.20;99.90
15113;DHT22;7657;50.140;7.076;2023-05-07T05:54:49;15.20;99.90
15113;DHT22;7657;50.140;7.076;2023-05-07T05:57:16;15.10;99.90
15113;DHT22;7657;50.140;7.076;2023-05-07T05:59:44;15.10;99.90
15113;DHT22;7657;50.140;7.076;2023-05-07T06:02:12;15.20;99.90
15113;DHT22;7657;50.140;7.076;2023-05-07T06:04:39;15.30;99.90
15113;DHT22;7657;50.140;7.076;2023-05-07T06:07:08;15.30;99.90
15113;DHT22;7657;50.140;7.076;2023-05-07T06:09:34;15.30;99.90
15113;DHT22;7657;50.140;7.076;2023-05-07T06:12:01;15.20;99.90
15113;DHT22;7657;50.140;7.076;2023-05-07T06:14:28;15.20;99.90
15113;DHT22;7657;50.140;7.076;2023-05-07T06:16:56;15.20;99.90
15113;DHT22;7657;50.140;7.076;2023-05-07T06:19:23;15.20;99.90
15113;DHT22;7657;50.140;7.076;2023-05-07T06:21:52;15.30;99.90
15113;DHT22;7657;50.140;7.076;2023-05-07T06:24:18;15.30;99.90
15113;DHT22;7657;50.140;7.076;2023-05-07T06:26:45;15.30;99.90
15113;DHT22;7657;50.140;7.076;2023-05-07T06:29:12;15.20;99.90
15113;DHT22;7657;50.140;7.076;2023-05-07T06:31:39;15.20;99.90
15113;DHT22;7657;50.140;7.076;2023-05-07T06:34:07;15.20;99.90
15113;DHT22;7657;50.140;7.076;2023-05-07T06:36:34;15.20;99.90
15113;DHT22;7657;50.140;7.076;2023-05-07T06:39:01;15.20;99.90
15113;DHT22;7657;50.140;7.076;2023-05-07T06:41:28;15.30;99.90
15113;DHT22;7657;50.140;7.076;2023-05-07T06:43:55;15.40;99.90
15113;DHT22;7657;50.140;7.076;2023-05-07T06:46:22;15.50;99.90
15113;DHT22;7657;50.140;7.076;2023-05-07T06:48:49;15.40;99.90
15113;DHT22;7657;50.140;7.076;2023-05-07T06:51:17;15.40;99.90
15113;DHT22;7657;50.140;7.076;2023-05-07T06:53:44;15.50;99.90
15113;DHT22;7657;50.140;7.076;2023-05-07T06:56:11;15.40;99.90
15113;DHT22;7657;50.140;7.076;2023-05-07T06:58:39;15.40;99.90
15113;DHT22;7657;50.140;7.076;2023-05-07T07:01:06;15.50;99.90
15113;DHT22;7657;50.140;7.076;2023-05-07T07:03:32;15.60;99.90
15113;DHT22;7657;50.140;7.076;2023-05-07T07:06:02;15.60;99.90
15113;DHT22;7657;50.140;7.076;2023-05-07T07:08:30;15.70;99.90
15113;DHT22;7657;50.140;7.076;2023-05-07T07:10:57;15.80;99.90
15113;DHT22;7657;50.140;7.076;2023-05-07T07:13:24;15.90;99.90
15113;DHT22;7657;50.140;7.076;2023-05-07T07:15:51;16.00;99.90
15113;DHT22;7657;50.140;7.076;2023-05-07T07:18:18;16.00;99.90
15113;DHT22;7657;50.140;7.076;2023-05-07T07:20:45;16.10;99.90
15113;DHT22;7657;50.140;7.076;2023-05-07T07:23:12;16.10;99.90
15113;DHT22;7657;50.140;7.076;2023-05-07T07:25:40;16.20;99.90
15113;DHT22;7657;50.140;7.076;2023-05-07T07:28:07;16.20;99.90
15113;DHT22;7657;50.140;7.076;2023-05-07T07:30:34;16.10;99.90
15113;DHT22;7657;50.140;7.076;2023-05-07T07:33:01;16.20;99.90
15113;DHT22;7657;50.140;7.076;2023-05-07T07:35:28;16.20;99.90
15113;DHT22;7657;50.140;7.076;2023-05-07T07:37:55;16.20;99.90
15113;DHT22;7657;50.140;7.076;2023-05-07T07:40:22;16.20;99.90
15113;DHT22;7657;50.140;7.076;2023-05-07T07:42:52;16.30;99.90
15113;DHT22;7657;50.140;7.076;2023-05-07T07:45:19;16.30;99.90
15113;DHT22;7657;50.140;7.076;2023-05-07T07:47:46;16.30;99.90
15113;DHT22;7657;50.140;7.076;2023-05-07T07:50:13;16.40;99.90
15113;DHT22;7657;50.140;7.076;2023-05-07T07:52:40;16.40;99.90
15113;DHT22;7657;50.140;7.076;2023-05-07T07:55:08;16.40;99.90
15113;DHT22;7657;50.140;7.076;2023-05-07T07:57:35;16.50;99.90
15113;DHT22;7657;50.140;7.076;2023-05-07T08:00:04;16.50;99.90
15113;DHT22;7657;50.140;7.076;2023-05-07T08:02:32;16.60;99.90
15113;DHT22;7657;50.140;7.076;2023-05-07T08:04:59;16.60;99.90
15113;DHT22;7657;50.140;7.076;2023-05-07T08:07:26;16.70;99.90
15113;DHT22;7657;50.140;7.076;2023-05-07T08:09:53;16.80;99.90
15113;DHT22;7657;50.140;7.076;2023-05-07T08:12:20;16.80;99.90
15113;DHT22;7657;50.140;7.076;2023-05-07T08:14:47;16.70;99.90
15113;DHT22;7657;50.140;7.076;2023-05-07T08:17:15;16.80;99.90
15113;DHT22;7657;50.140;7.076;2023-05-07T08:19:42;17.00;99.90
15113;DHT22;7657;50.140;7.076;2023-05-07T08:22:09;17.10;99.90
15113;DHT22;7657;50.140;7.076;2023-05-07T08:24:37;17.00;99.90
15113;DHT22;7657;50.140;7.076;2023-05-07T08:27:04;17.10;99.90
15113;DHT22;7657;50.140;7.076;2023-05-07T08:29:31;17.20;99.90
15113;DHT22;7657;50.140;7.076;2023-05-07T08:31:58;17.30;99.90
15113;DHT22;7657;50.140;7.076;2023-05-07T08:34:26;17.30;99.90
15113;DHT22;7657;50.140;7.076;2023-05-07T08:36:53;17.40;99.90
15113;DHT22;7657;50.140;7.076;2023-05-07T08:39:20;17.40;99.90
15113;DHT22;7657;50.140;7.076;2023-05-07T08:41:48;17.40;99.90
15113;DHT22;7657;50.140;7.076;2023-05-07T08:44:18;17.30;99.90
15113;DHT22;7657;50.140;7.076;2023-05-07T08:46:48;17.30;99.90
15113;DHT22;7657;50.140;7.076;2023-05-07T08:49:17;17.40;99.90
15113;DHT22;7657;50.140;7.076;2023-05-07T08:51:45;17.40;99.90
15113;DHT22;7657;50.140;7.076;2023-05-07T08:54:16;17.50;99.90
15113;DHT22;7657;50.140;7.076;2023-05-07T08:56:43;17.60;99.90
15113;DHT22;7657;50.140;7.076;2023-05-07T08:59:10;17.60;99.90
15113;DHT22;7657;50.140;7.076;2023-05-07T09:01:37;17.60;99.90
15113;DHT22;7657;50.140;7.076;2023-05-07T09:04:04;17.60;99.90
15113;DHT22;7657;50.140;7.076;2023-05-07T09:06:32;17.70;99.90
15113;DHT22;7657;50.140;7.076;2023-05-07T09:09:01;17.80;99.90
15113;DHT22;7657;50.140;7.076;2023-05-07T09:11:31;17.80;99.90
15113;DHT22;7657;50.140;7.076;2023-05-07T09:13:58;17.80;99.90
15113;DHT22;7657;50.140;7.076;2023-05-07T09:16:28;17.80;99.90
15113;DHT22;7657;50.140;7.076;2023-05-07T09:18:56;17.90;99.90
15113;DHT22;7657;50.140;7.076;2023-05-07T09:21:23;17.90;99.90
15113;DHT22;7657;50.140;7.076;2023-05-07T09:23:52;18.00;99.90
15113;DHT22;7657;50.140;7.076;2023-05-07T09:26:22;18.10;99.90
15113;DHT22;7657;50.140;7.076;2023-05-07T09:28:49;18.10;99.90
15113;DHT22;7657;50.140;7.076;2023-05-07T09:31:17;18.20;99.90
15113;DHT22;7657;50.140;7.076;2023-05-07T09:33:44;18.20;99.90
15113;DHT22;7657;50.140;7.076;2023-05-07T09:36:11;18.20;99.90
15113;DHT22;7657;50.140;7.076;2023-05-07T09:38:38;18.20;99.90
15113;DHT22;7657;50.140;7.076;2023-05-07T09:41:07;18.20;99.90
15113;DHT22;7657;50.140;7.076;2023-05-07T09:43:36;18.30;99.90
15113;DHT22;7657;50.140;7.076;2023-05-07T09:46:06;18.40;99.90
15113;DHT22;7657;50.140;7.076;2023-05-07T09:48:37;18.40;99.90
15113;DHT22;7657;50.140;7.076;2023-05-07T09:51:08;18.40;99.90
15113;DHT22;7657;50.140;7.076;2023-05-07T09:53:36;18.50;99.90
15113;DHT22;7657;50.140;7.076;2023-05-07T09:56:04;18.60;99.90
15113;DHT22;7657;50.140;7.076;2023-05-07T09:58:32;18.60;99.90
15113;DHT22;7657;50.140;7.076;2023-05-07T10:01:01;18.60;99.90
15113;DHT22;7657;50.140;7.076;2023-05-07T10:03:29;18.70;99.90
15113;DHT22;7657;50.140;7.076;2023-05-07T10:05:58;18.80;99.90
15113;DHT22;7657;50.140;7.076;2023-05-07T10:08:26;18.80;99.90
15113;DHT22;7657;50.140;7.076;2023-05-07T10:10:53;18.90;99.90
15113;DHT22;7657;50.140;7.076;2023-05-07T10:13:20;18.90;99.90
15113;DHT22;7657;50.140;7.076;2023-05-07T10:15:47;19.00;99.90
15113;DHT22;7657;50.140;7.076;2023-05-07T10:18:16;19.10;99.90
15113;DHT22;7657;50.140;7.076;2023-05-07T10:20:48;19.10;99.90
15113;DHT22;7657;50.140;7.076;2023-05-07T10:23:23;19.20;99.90
15113;DHT22;7657;50.140;7.076;2023-05-07T10:25:51;19.30;99.90
15113;DHT22;7657;50.140;7.076;2023-05-07T10:28:21;19.40;99.90
15113;DHT22;7657;50.140;7.076;2023-05-07T10:31:04;19.50;99.90
15113;DHT22;7657;50.140;7.076;2023-05-07T10:33:36;19.50;99.90
15113;DHT22;7657;50.140;7.076;2023-05-07T10:36:05;19.60;99.90
15113;DHT22;7657;50.140;7.076;2023-05-07T10:38:33;19.70;99.90
15113;DHT22;7657;50.140;7.076;2023-05-07T10:41:01;19.70;99.90
15113;DHT22;7657;50.140;7.076;2023-05-07T10:43:41;19.80;99.90
15113;DHT22;7657;50.140;7.076;2023-05-07T10:46:14;19.80;99.90
15113;DHT22;7657;50.140;7.076;2023-05-07T10:51:38;20.00;99.90
15113;DHT22;7657;50.140;7.076;2023-05-07T10:54:21;20.00;99.90
15113;DHT22;7657;50.140;7.076;2023-05-07T10:56:49;20.10;99.90
15113;DHT22;7657;50.140;7.076;2023-05-07T10:59:35;20.10;99.90
15113;DHT22;7657;50.140;7.076;2023-05-07T11:02:07;20.20;99.90
15113;DHT22;7657;50.140;7.076;2023-05-07T11:04:36;20.30;99.90
15113;DHT22;7657;50.140;7.076;2023-05-07T11:07:29;20.40;99.90
15113;DHT22;7657;50.140;7.076;2023-05-07T11:09:58;20.60;99.90
15113;DHT22;7657;50.140;7.076;2023-05-07T11:15:41;20.70;99.90
15113;DHT22;7657;50.140;7.076;2023-05-07T11:18:09;20.70;99.90
15113;DHT22;7657;50.140;7.076;2023-05-07T11:20:46;20.80;99.90
15113;DHT22;7657;50.140;7.076;2023-05-07T11:26:19;20.80;99.90
15113;DHT22;7657;50.140;7.076;2023-05-07T11:28:47;20.80;99.90
15113;DHT22;7657;50.140;7.076;2023-05-07T11:31:14;20.80;99.90
15113;DHT22;7657;50.140;7.076;2023-05-07T11:33:47;20.90;99.90
15113;DHT22;7657;50.140;7.076;2023-05-07T11:36:14;20.80;99.90
15113;DHT22;7657;50.140;7.076;2023-05-07T11:38:41;20.80;99.90
15113;DHT22;7657;50.140;7.076;2023-05-07T11:41:07;20.90;99.90
15113;DHT22;7657;50.140;7.076;2023-05-07T11:43:36;21.00;99.90
15113;DHT22;7657;50.140;7.076;2023-05-07T11:46:08;21.10;99.90
15113;DHT22;7657;50.140;7.076;2023-05-07T11:48:35;21.20;99.90
15113;DHT22;7657;50.140;7.076;2023-05-07T11:51:04;21.20;99.90
15113;DHT22;7657;50.140;7.076;2023-05-07T11:53:36;21.20;99.90
15113;DHT22;7657;50.140;7.076;2023-05-07T11:56:07;21.20;99.90
15113;DHT22;7657;50.140;7.076;2023-05-07T11:58:39;21.10;99.90
15113;DHT22;7657;50.140;7.076;2023-05-07T12:01:07;21.10;99.90
15113;DHT22;7657;50.140;7.076;2023-05-07T12:03:35;21.10;99.90
15113;DHT22;7657;50.140;7.076;2023-05-07T12:06:04;21.20;99.90
15113;DHT22;7657;50.140;7.076;2023-05-07T12:08:32;21.20;99.90
15113;DHT22;7657;50.140;7.076;2023-05-07T12:10:59;21.40;99.90
15113;DHT22;7657;50.140;7.076;2023-05-07T12:13:26;21.40;99.90
15113;DHT22;7657;50.140;7.076;2023-05-07T12:15:55;21.50;99.90
15113;DHT22;7657;50.140;7.076;2023-05-07T12:18:23;21.60;99.90
15113;DHT22;7657;50.140;7.076;2023-05-07T12:20:50;21.70;99.90
15113;DHT22;7657;50.140;7.076;2023-05-07T12:23:17;21.70;99.90
15113;DHT22;7657;50.140;7.076;2023-05-07T12:25:45;21.80;99.90
15113;DHT22;7657;50.140;7.076;2023-05-07T12:28:13;21.80;99.90
15113;DHT22;7657;50.140;7.076;2023-05-07T12:30:40;21.90;99.90
15113;DHT22;7657;50.140;7.076;2023-05-07T12:33:11;22.00;99.90
15113;DHT22;7657;50.140;7.076;2023-05-07T12:35:40;22.00;99.90
15113;DHT22;7657;50.140;7.076;2023-05-07T12:38:08;22.10;99.90
15113;DHT22;7657;50.140;7.076;2023-05-07T12:40:37;22.20;99.90
15113;DHT22;7657;50.140;7.076;2023-05-07T12:43:04;22.30;99.90
15113;DHT22;7657;50.140;7.076;2023-05-07T12:45:31;22.50;99.90
15113;DHT22;7657;50.140;7.076;2023-05-07T12:48:01;22.60;99.90
15113;DHT22;7657;50.140;7.076;2023-05-07T12:50:32;22.60;99.90
15113;DHT22;7657;50.140;7.076;2023-05-07T12:53:00;22.60;99.90
15113;DHT22;7657;50.140;7.076;2023-05-07T12:55:29;22.60;99.90
15113;DHT22;7657;50.140;7.076;2023-05-07T12:57:56;22.50;99.90
15113;DHT22;7657;50.140;7.076;2023-05-07T13:00:35;22.50;99.90
15113;DHT22;7657;50.140;7.076;2023-05-07T13:03:02;22.40;99.90
15113;DHT22;7657;50.140;7.076;2023-05-07T13:05:31;22.40;99.90
15113;DHT22;7657;50.140;7.076;2023-05-07T13:07:59;22.40;99.90
15113;DHT22;7657;50.140;7.076;2023-05-07T13:10:26;22.50;99.90
15113;DHT22;7657;50.140;7.076;2023-05-07T13:12:53;22.80;99.90
15113;DHT22;7657;50.140;7.076;2023-05-07T13:15:21;23.00;99.90
15113;DHT22;7657;50.140;7.076;2023-05-07T13:17:48;22.90;99.90
15113;DHT22;7657;50.140;7.076;2023-05-07T13:20:15;22.90;99.90
15113;DHT22;7657;50.140;7.076;2023-05-07T13:22:44;22.90;99.90
15113;DHT22;7657;50.140;7.076;2023-05-07T13:25:13;22.80;99.90
15113;DHT22;7657;50.140;7.076;2023-05-07T13:27:39;22.80;99.90
15113;DHT22;7657;50.140;7.076;2023-05-07T13:30:07;22.80;99.90
15113;DHT22;7657;50.140;7.076;2023-05-07T13:32:34;22.80;99.90
15113;DHT22;7657;50.140;7.076;2023-05-07T13:35:01;22.70;99.90
15113;DHT22;7657;50.140;7.076;2023-05-07T13:37:28;22.70;99.90
15113;DHT22;7657;50.140;7.076;2023-05-07T13:39:57;22.70;99.90
15113;DHT22;7657;50.140;7.076;2023-05-07T13:42:23;22.70;99.90
15113;DHT22;7657;50.140;7.076;2023-05-07T13:44:51;22.70;99.90
15113;DHT22;7657;50.140;7.076;2023-05-07T13:47:17;22.60;99.90
15113;DHT22;7657;50.140;7.076;2023-05-07T13:49:45;22.60;99.90
15113;DHT22;7657;50.140;7.076;2023-05-07T13:52:15;22.50;99.90
15113;DHT22;7657;50.140;7.076;2023-05-07T13:54:41;22.50;99.90
15113;DHT22;7657;50.140;7.076;2023-05-07T13:57:12;22.50;99.90
15113;DHT22;7657;50.140;7.076;2023-05-07T13:59:39;22.50;99.90
15113;DHT22;7657;50.140;7.076;2023-05-07T14:02:06;22.40;99.90
15113;DHT22;7657;50.140;7.076;2023-05-07T14:04:34;22.40;99.90
15113;DHT22;7657;50.140;7.076;2023-05-07T14:07:01;22.30;99.90
15113;DHT22;7657;50.140;7.076;2023-05-07T14:09:28;22.30;99.90
15113;DHT22;7657;50.140;7.076;2023-05-07T14:11:55;22.20;99.90
15113;DHT22;7657;50.140;7.076;2023-05-07T14:14:23;22.20;99.90
15113;DHT22;7657;50.140;7.076;2023-05-07T14:16:50;22.10;99.90
15113;DHT22;7657;50.140;7.076;2023-05-07T14:19:17;22.10;99.90
15113;DHT22;7657;50.140;7.076;2023-05-07T14:21:44;22.10;99.90
15113;DHT22;7657;50.140;7.076;2023-05-07T14:24:11;22.00;99.90
15113;DHT22;7657;50.140;7.076;2023-05-07T14:26:38;21.90;99.90
15113;DHT22;7657;50.140;7.076;2023-05-07T14:29:05;21.90;99.90
15113;DHT22;7657;50.140;7.076;2023-05-07T14:31:34;21.90;99.90
15113;DHT22;7657;50.140;7.076;2023-05-07T14:34:03;21.90;99.90
15113;DHT22;7657;50.140;7.076;2023-05-07T14:36:30;21.80;99.90
15113;DHT22;7657;50.140;7.076;2023-05-07T14:38:57;21.80;99.90
15113;DHT22;7657;50.140;7.076;2023-05-07T14:41:24;21.80;99.90
15113;DHT22;7657;50.140;7.076;2023-05-07T14:43:51;21.80;99.90
15113;DHT22;7657;50.140;7.076;2023-05-07T14:46:19;21.90;99.90
15113;DHT22;7657;50.140;7.076;2023-05-07T14:48:47;21.90;99.90
15113;DHT22;7657;50.140;7.076;2023-05-07T14:51:14;21.90;99.90
15113;DHT22;7657;50.140;7.076;2023-05-07T14:53:41;22.00;99.90
15113;DHT22;7657;50.140;7.076;2023-05-07T14:56:09;22.00;99.90
15113;DHT22;7657;50.140;7.076;2023-05-07T14:58:36;22.00;99.90
15113;DHT22;7657;50.140;7.076;2023-05-07T15:01:03;22.00;99.90
15113;DHT22;7657;50.140;7.076;2023-05-07T15:03:30;22.00;99.90
15113;DHT22;7657;50.140;7.076;2023-05-07T15:05:59;22.00;99.90
15113;DHT22;7657;50.140;7.076;2023-05-07T15:08:26;22.00;99.90
15113;DHT22;7657;50.140;7.076;2023-05-07T15:10:52;22.00;99.90
15113;DHT22;7657;50.140;7.076;2023-05-07T15:13:20;22.00;99.90
15113;DHT22;7657;50.140;7.076;2023-05-07T15:15:47;21.90;99.90
15113;DHT22;7657;50.140;7.076;2023-05-07T15:18:15;21.80;99.90
15113;DHT22;7657;50.140;7.076;2023-05-07T15:20:42;21.80;99.90
15113;DHT22;7657;50.140;7.076;2023-05-07T15:23:10;21.20;99.90
15113;DHT22;7657;50.140;7.076;2023-05-07T15:25:37;20.60;99.90
15113;DHT22;7657;50.140;7.076;2023-05-07T15:28:04;20.40;99.90
15113;DHT22;7657;50.140;7.076;2023-05-07T15:30:31;20.00;99.90
15113;DHT22;7657;50.140;7.076;2023-05-07T15:32:58;19.90;99.90
15113;DHT22;7657;50.140;7.076;2023-05-07T15:35:25;19.70;99.90
15113;DHT22;7657;50.140;7.076;2023-05-07T15:37:52;19.50;99.90
15113;DHT22;7657;50.140;7.076;2023-05-07T15:40:21;19.30;99.90
15113;DHT22;7657;50.140;7.076;2023-05-07T15:42:48;19.00;99.90
15113;DHT22;7657;50.140;7.076;2023-05-07T15:45:15;18.80;99.90
15113;DHT22;7657;50.140;7.076;2023-05-07T15:47:42;18.70;99.90
15113;DHT22;7657;50.140;7.076;2023-05-07T15:50:09;18.50;99.90
15113;DHT22;7657;50.140;7.076;2023-05-07T15:52:37;18.50;99.90
15113;DHT22;7657;50.140;7.076;2023-05-07T15:55:06;18.40;99.90
15113;DHT22;7657;50.140;7.076;2023-05-07T15:57:35;18.40;99.90